Time;durP1;ratioP1;P1;durP2;ratioP2;P2;SDS_P1;SDS_P2;PMS_P1;PMS_P2;Temp;Humidity;BMP_temperature;BMP_pressure;BME280_temperature;BME280_humidity;BME280_pressure;Samples;Min_cycle;Max_cycle;Signal;HPM_P1;HPM_P2
2022/04/17 00:00:34;;;;;;;;;;;;;;;22.08;31.68;94957.56;2074649;28;1369;-65
2022/04/17 00:01:36;;;;;;;;;;;;;;;22.08;31.57;94954.88;2066028;28;1128;-65
2022/04/17 00:02:38;;;;;;;;;;;;;;;22.07;31.51;94945.19;2066079;28;1148;-65
2022/04/17 00:03:40;;;;;;;;;;;;;;;22.06;31.70;94942.75;2065827;28;1092;-65
2022/04/17 00:04:41;;;;;;;;;;;;;;;22.07;31.63;94947.06;2066134;28;995;-67
2022/04/17 00:05:43;;;;;;;;;;;;;;;22.06;31.50;94948.94;2074399;28;1109;-65
2022/04/17 00:06:44;;;;;;;;;;;;;;;22.07;31.49;94949.72;2060561;28;1094;-65
2022/04/17 00:07:46;;;;;;;;;;;;;;;22.06;31.76;94945.44;2061126;28;1154;-65
2022/04/17 00:08:49;;;;;;;;;;;;;;;22.06;31.81;94953.47;2074387;28;1041;-65
2022/04/17 00:09:50;;;;;;;;;;;;;;;22.06;31.67;94954.28;2074462;28;1322;-65
2022/04/17 00:10:52;;;;;;;;;;;;;;;22.06;31.65;94953.47;2074394;28;1113;-66
2022/04/17 00:11:54;;;;;;;;;;;;;;;22.06;31.57;94948.94;2073594;28;1114;-65
2022/04/17 00:12:56;;;;;;;;;;;;;;;22.08;31.73;94951.34;2074434;28;1971;-65
2022/04/17 00:13:59;;;;;;;;;;;;;;;22.08;31.66;94951.34;2073654;28;1338;-65
2022/04/17 00:15:02;;;;;;;;;;;;;;;22.07;31.69;94955.09;2065660;28;1110;-65
2022/04/17 00:16:04;;;;;;;;;;;;;;;22.07;31.65;94949.72;2065940;28;1110;-65
2022/04/17 00:17:06;;;;;;;;;;;;;;;22.07;31.75;94950.53;2074333;28;1106;-65
2022/04/17 00:18:08;;;;;;;;;;;;;;;22.10;31.73;94947.44;2069804;28;1094;-66
2022/04/17 00:19:10;;;;;;;;;;;;;;;22.10;31.64;94950.09;2068661;28;1305;-66
2022/04/17 00:20:12;;;;;;;;;;;;;;;22.08;31.62;94952.19;2065581;28;1097;-67
2022/04/17 00:21:15;;;;;;;;;;;;;;;22.08;31.63;94941.50;2065596;28;1113;-66
2022/04/17 00:22:17;;;;;;;;;;;;;;;22.08;31.49;94938.81;2065691;28;1042;-66
2022/04/17 00:23:18;;;;;;;;;;;;;;;22.08;31.68;94944.19;2065923;28;1070;-65
2022/04/17 00:24:20;;;;;;;;;;;;;;;22.07;31.57;94937.16;2065669;28;1057;-66
2022/04/17 00:25:28;;;;;;;;;;;;;;;22.08;31.50;94937.97;2066829;28;1260;-66
2022/04/17 00:26:29;;;;;;;;;;;;;;;22.07;31.71;94934.50;2074430;28;1117;-66
2022/04/17 00:27:31;;;;;;;;;;;;;;;22.06;31.67;94940.91;2074204;28;1159;-65
2022/04/17 00:28:33;;;;;;;;;;;;;;;22.07;31.55;94936.34;2064986;28;1114;-66
2022/04/17 00:29:35;;;;;;;;;;;;;;;22.06;31.63;94932.88;2061159;28;1105;-66
2022/04/17 00:30:36;;;;;;;;;;;;;;;22.09;31.73;94932.41;2054833;28;1674;-67
2022/04/17 00:31:38;;;;;;;;;;;;;;;22.09;31.63;94920.91;2057891;28;986;-66
2022/04/17 00:32:40;;;;;;;;;;;;;;;22.08;31.56;94922.78;2066153;28;1989;-66
2022/04/17 00:33:42;;;;;;;;;;;;;;;22.08;31.68;94917.41;2066278;28;1078;-65
2022/04/17 00:34:44;;;;;;;;;;;;;;;22.07;31.73;94923.78;2066311;28;1125;-66
2022/04/17 00:35:46;;;;;;;;;;;;;;;22.06;31.75;94911.47;2065856;28;1017;-67
2022/04/17 00:36:47;;;;;;;;;;;;;;;22.07;31.69;94918.44;2066279;28;1002;-65
2022/04/17 00:37:49;;;;;;;;;;;;;;;22.08;31.68;94924.59;2066058;28;1125;-65
2022/04/17 00:38:50;;;;;;;;;;;;;;;22.07;31.64;94923.78;2065955;28;1109;-65
2022/04/17 00:39:52;;;;;;;;;;;;;;;22.06;31.71;94919.50;2066206;28;1029;-66
2022/04/17 00:40:54;;;;;;;;;;;;;;;22.07;31.70;94925.66;2053073;28;1240;-65
2022/04/17 00:41:56;;;;;;;;;;;;;;;22.05;31.60;94915.19;2052677;28;1169;-65
2022/04/17 00:42:59;;;;;;;;;;;;;;;22.06;31.69;94921.34;2065629;28;1149;-66
2022/04/17 00:44:00;;;;;;;;;;;;;;;22.07;31.73;94925.66;2066032;28;1168;-66
2022/04/17 00:45:02;;;;;;;;;;;;;;;22.05;31.51;94919.69;2057194;28;1893;-65
2022/04/17 00:46:04;;;;;;;;;;;;;;;22.06;31.58;94922.16;2057479;28;994;-65
2022/04/17 00:47:08;;;;;;;;;;;;;;;22.06;31.59;94922.16;2057606;28;1159;-65
2022/04/17 00:48:10;;;;;;;;;;;;;;;22.06;31.67;94919.50;2066170;28;1015;-64
2022/04/17 00:49:12;;;;;;;;;;;;;;;22.06;31.59;94916.00;2066069;28;1001;-65
2022/04/17 00:50:13;;;;;;;;;;;;;;;22.04;31.74;94924.25;2057388;28;1072;-67
2022/04/17 00:51:16;;;;;;;;;;;;;;;22.04;31.75;94912.72;2048910;28;1206;-65
2022/04/17 00:52:20;;;;;;;;;;;;;;;22.05;31.86;94907.16;2053284;28;1545;-65
2022/04/17 00:53:23;;;;;;;;;;;;;;;22.04;31.75;94910.88;2052662;28;1197;-65
2022/04/17 00:54:25;;;;;;;;;;;;;;;22.06;31.51;94911.47;2057639;28;1359;-65
2022/04/17 00:55:27;;;;;;;;;;;;;;;22.07;31.71;94913.09;2065437;28;1017;-65
2022/04/17 00:56:30;;;;;;;;;;;;;;;22.07;31.74;94906.94;2057370;28;1093;-66
2022/04/17 00:57:31;;;;;;;;;;;;;;;22.07;31.54;94912.28;2057778;28;1050;-65
2022/04/17 00:58:36;;;;;;;;;;;;;;;22.05;31.74;94901.81;2056688;28;1628;-65
2022/04/17 00:59:39;;;;;;;;;;;;;;;22.05;31.75;94906.31;2057641;28;1173;-66
2022/04/17 01:00:41;;;;;;;;;;;;;;;22.06;31.78;94903.44;2065395;28;1360;-65
2022/04/17 01:01:43;;;;;;;;;;;;;;;22.06;31.39;94908.78;2066037;28;1176;-65
2022/04/17 01:02:45;;;;;;;;;;;;;;;22.06;31.71;94899.94;2066004;28;1113;-65
2022/04/17 01:03:48;;;;;;;;;;;;;;;22.04;31.72;94902.03;2061008;28;1535;-66
2022/04/17 01:04:49;;;;;;;;;;;;;;;22.04;31.65;94902.03;2061312;28;1114;-67
2022/04/17 01:05:51;;;;;;;;;;;;;;;22.07;31.73;94896.22;2056883;28;1122;-66
2022/04/17 01:06:53;;;;;;;;;;;;;;;22.06;31.85;94898.09;2057714;28;1077;-66
2022/04/17 01:07:55;;;;;;;;;;;;;;;22.06;31.63;94894.59;2057613;28;1390;-65
2022/04/17 01:08:57;;;;;;;;;;;;;;;22.05;31.72;94893.78;2057691;28;1070;-66
2022/04/17 01:10:00;;;;;;;;;;;;;;;22.05;31.62;94896.47;2057034;28;1244;-66
2022/04/17 01:11:01;;;;;;;;;;;;;;;22.05;31.88;94892.94;2057518;28;1105;-65
2022/04/17 01:12:08;;;;;;;;;;;;;;;22.07;31.70;94896.22;2057270;28;1058;-66
2022/04/17 01:13:11;;;;;;;;;;;;;;;22.07;31.76;94896.22;2057280;28;1906;-67
2022/04/17 01:14:12;;;;;;;;;;;;;;;22.06;31.75;94894.59;2065967;28;951;-66
2022/04/17 01:15:15;;;;;;;;;;;;;;;22.06;31.58;94895.41;2060429;28;1121;-66
2022/04/17 01:16:16;;;;;;;;;;;;;;;22.07;31.67;94886.34;2053808;28;1118;-66
2022/04/17 01:17:18;;;;;;;;;;;;;;;22.07;31.75;94883.66;2057577;28;1003;-65
2022/04/17 01:18:20;;;;;;;;;;;;;;;22.05;31.86;94885.75;2065773;28;1215;-67
2022/04/17 01:19:23;;;;;;;;;;;;;;;22.07;31.73;94886.34;2057163;28;1125;-65
2022/04/17 01:20:25;;;;;;;;;;;;;;;22.07;31.57;94886.34;2057341;28;1153;-64
2022/04/17 01:21:27;;;;;;;;;;;;;;;22.07;31.56;94885.53;2056842;28;1487;-65
2022/04/17 01:22:28;;;;;;;;;;;;;;;22.05;31.60;94888.44;2057407;28;1164;-65
2022/04/17 01:27:31;;;;;;;;;;;;;;;22.03;31.65;94897.72;2060839;28;1166;-65
2022/04/17 01:28:33;;;;;;;;;;;;;;;22.05;31.74;94896.47;2065796;28;994;-65
2022/04/17 01:29:40;;;;;;;;;;;;;;;22.04;31.73;94892.13;2056763;28;1558;-65
2022/04/17 01:30:41;;;;;;;;;;;;;;;22.06;31.59;94891.91;2056397;28;1234;-66
2022/04/17 01:31:43;;;;;;;;;;;;;;;22.05;31.75;94896.47;2065251;28;1466;-65
2022/04/17 01:32:44;;;;;;;;;;;;;;;22.05;31.89;94892.94;2073976;28;1883;-66
2022/04/17 01:33:46;;;;;;;;;;;;;;;22.05;31.57;94898.28;2073798;28;1245;-65
2022/04/17 01:34:48;;;;;;;;;;;;;;;22.04;31.80;94894.00;2064303;28;1308;-65
2022/04/17 01:35:49;;;;;;;;;;;;;;;22.03;31.79;94890.50;2065349;28;1019;-65
2022/04/17 01:36:51;;;;;;;;;;;;;;;22.03;31.82;94898.53;2073938;28;1022;-65
2022/04/17 01:37:53;;;;;;;;;;;;;;;22.03;31.92;94897.72;2068976;28;1101;-65
2022/04/17 01:38:54;;;;;;;;;;;;;;;22.04;31.60;94894.81;2069251;28;1193;-66
2022/04/17 01:39:56;;;;;;;;;;;;;;;22.05;31.60;94901.81;2073762;28;1073;-69
2022/04/17 01:40:57;;;;;;;;;;;;;;;22.06;31.60;94894.59;2064887;28;1077;-68
2022/04/17 01:41:59;;;;;;;;;;;;;;;22.05;31.55;94893.78;2065274;28;1014;-67
2022/04/17 01:43:01;;;;;;;;;;;;;;;22.05;31.80;94896.47;2057128;28;1006;-65
2022/04/17 01:44:03;;;;;;;;;;;;;;;22.04;31.87;94892.13;2065222;28;1604;-66
2022/04/17 01:45:05;;;;;;;;;;;;;;;22.03;31.59;94901.22;2073910;28;990;-66
2022/04/17 01:46:06;;;;;;;;;;;;;;;22.04;31.78;94894.81;2073713;28;2076;-66
2022/04/17 01:47:08;;;;;;;;;;;;;;;22.06;31.69;94894.59;2073835;28;1199;-66
2022/04/17 01:48:10;;;;;;;;;;;;;;;22.05;31.75;94893.78;2073878;28;1060;-66
2022/04/17 01:49:12;;;;;;;;;;;;;;;22.05;31.79;94892.94;2069108;28;1541;-66
2022/04/17 01:50:14;;;;;;;;;;;;;;;22.05;31.65;94901.81;2068644;28;1249;-66
2022/04/17 01:51:15;;;;;;;;;;;;;;;22.07;31.78;94901.56;2073930;28;1349;-65
2022/04/17 01:52:17;;;;;;;;;;;;;;;22.08;31.52;94904.03;2073721;28;1129;-66
2022/04/17 01:53:20;;;;;;;;;;;;;;;22.07;31.76;94905.06;2064927;28;1902;-66
2022/04/17 01:54:23;;;;;;;;;;;;;;;22.04;31.67;94902.84;2065277;28;1286;-66
2022/04/17 01:55:25;;;;;;;;;;;;;;;22.04;31.71;94896.66;2073860;28;1050;-67
2022/04/17 01:56:27;;;;;;;;;;;;;;;22.03;31.66;94895.84;2073886;28;1559;-66
2022/04/17 01:57:28;;;;;;;;;;;;;;;22.03;31.80;94901.22;2073076;28;1265;-66
2022/04/17 01:58:30;;;;;;;;;;;;;;;22.03;31.57;94898.53;2073903;28;1011;-66
2022/04/17 01:59:32;;;;;;;;;;;;;;;22.01;31.81;94902.47;2065045;28;1117;-66
2022/04/17 02:00:33;;;;;;;;;;;;;;;22.03;31.81;94895.03;2060369;28;1040;-67
2022/04/17 02:01:35;;;;;;;;;;;;;;;22.02;31.79;94894.19;2060416;28;1663;-67
2022/04/17 02:02:37;;;;;;;;;;;;;;;22.03;31.94;94895.03;2065066;28;2030;-68
2022/04/17 02:03:39;;;;;;;;;;;;;;;22.04;31.80;94902.84;2065265;28;1716;-66
2022/04/17 02:04:40;;;;;;;;;;;;;;;22.04;31.79;94894.81;2064630;28;1011;-66
2022/04/17 02:05:42;;;;;;;;;;;;;;;22.04;31.65;94896.66;2065059;28;1176;-66
2022/04/17 02:06:44;;;;;;;;;;;;;;;22.05;31.74;94901.81;2064903;28;1121;-67
2022/04/17 02:07:45;;;;;;;;;;;;;;;22.04;31.59;94900.16;2065229;28;1052;-66
2022/04/17 02:08:47;;;;;;;;;;;;;;;22.05;31.59;94899.13;2073393;28;1074;-66
2022/04/17 02:09:48;;;;;;;;;;;;;;;22.05;31.79;94893.78;2072952;28;1337;-67
2022/04/17 02:10:50;;;;;;;;;;;;;;;22.05;31.71;94883.09;2073421;28;1176;-66
2022/04/17 02:11:53;;;;;;;;;;;;;;;22.04;31.65;94886.78;2060031;28;1121;-65
2022/04/17 02:12:54;;;;;;;;;;;;;;;22.04;31.90;94869.91;2060402;28;1195;-66
2022/04/17 02:13:57;;;;;;;;;;;;;;;22.03;31.64;94869.09;2064605;28;2009;-67
2022/04/17 02:14:59;;;;;;;;;;;;;;;22.05;31.77;94866.19;2065252;28;1333;-67
2022/04/17 02:16:00;;;;;;;;;;;;;;;22.05;31.52;94872.38;2073749;28;1168;-67
2022/04/17 02:17:02;;;;;;;;;;;;;;;22.03;31.91;94871.78;2065185;28;1167;-66
2022/04/17 02:18:05;;;;;;;;;;;;;;;22.05;31.72;94876.88;2065177;28;1160;-66
2022/04/17 02:19:07;;;;;;;;;;;;;;;22.04;31.74;94865.38;2073479;28;1062;-66
2022/04/17 02:20:09;;;;;;;;;;;;;;;22.04;31.72;94870.72;2073748;28;997;-67
2022/04/17 02:21:13;;;;;;;;;;;;;;;22.02;31.73;94866.63;2073631;28;1046;-67
2022/04/17 02:22:14;;;;;;;;;;;;;;;22.03;31.83;94863.75;2073683;28;1091;-65
2022/04/17 02:23:16;;;;;;;;;;;;;;;22.03;31.77;94857.59;2069073;28;1295;-69
2022/04/17 02:24:18;;;;;;;;;;;;;;;22.04;31.63;94859.22;2069049;28;1059;-66
2022/04/17 02:25:20;;;;;;;;;;;;;;;22.02;31.54;94854.06;2073822;28;1028;-66
2022/04/17 02:26:21;;;;;;;;;;;;;;;22.02;31.64;94856.75;2073588;28;1035;-67
2022/04/17 02:27:23;;;;;;;;;;;;;;;22.02;31.59;94859.41;2072991;28;1105;-66
2022/04/17 02:28:24;;;;;;;;;;;;;;;22.03;31.66;94862.94;2073653;28;1113;-66
2022/04/17 02:29:26;;;;;;;;;;;;;;;22.03;31.79;94852.25;2064797;28;1325;-66
2022/04/17 02:30:28;;;;;;;;;;;;;;;22.02;31.68;94858.63;2060343;28;1164;-66
2022/04/17 02:31:30;;;;;;;;;;;;;;;22.02;31.83;94856.75;2065451;28;1093;-65
2022/04/17 02:32:32;;;;;;;;;;;;;;;22.03;31.87;94860.25;2065732;28;1048;-65
2022/04/17 02:33:34;;;;;;;;;;;;;;;22.02;31.88;94858.63;2056601;28;1914;-66
2022/04/17 02:34:35;;;;;;;;;;;;;;;22.03;31.76;94857.59;2052015;28;1161;-65
2022/04/17 02:35:37;;;;;;;;;;;;;;;22.03;31.87;94857.59;2061832;28;1412;-66
2022/04/17 02:36:38;;;;;;;;;;;;;;;22.04;31.77;94860.03;2058602;28;1049;-65
2022/04/17 02:37:40;;;;;;;;;;;;;;;22.03;31.78;94861.06;2058490;28;1561;-65
2022/04/17 02:38:42;;;;;;;;;;;;;;;22.04;31.73;94860.03;2067086;28;1214;-66
2022/04/17 02:39:43;;;;;;;;;;;;;;;22.04;31.61;94861.88;2067371;28;1006;-65
2022/04/17 02:40:45;;;;;;;;;;;;;;;22.04;31.80;94861.88;2067000;28;1021;-66
2022/04/17 02:41:46;;;;;;;;;;;;;;;22.03;31.58;94857.59;2057689;28;1155;-66
2022/04/17 02:42:48;;;;;;;;;;;;;;;22.04;31.63;94853.88;2058570;28;1149;-66
2022/04/17 02:43:50;;;;;;;;;;;;;;;22.03;31.74;94852.25;2066910;28;1144;-66
2022/04/17 02:44:51;;;;;;;;;;;;;;;22.04;31.74;94856.53;2067144;28;1043;-65
2022/04/17 02:45:53;;;;;;;;;;;;;;;22.03;31.52;94853.06;2062414;28;1202;-65
2022/04/17 02:48:15;;;;;;;;;;;;;;;22.01;31.80;94849.78;2067193;28;1315;-66
2022/04/17 02:49:16;;;;;;;;;;;;;;;22.00;31.81;94848.16;2066587;28;1230;-66
2022/04/17 02:50:19;;;;;;;;;;;;;;;22.03;31.68;94852.25;2066918;28;1153;-65
2022/04/17 02:51:20;;;;;;;;;;;;;;;22.02;31.67;94855.94;2066826;28;1121;-65
2022/04/17 02:52:22;;;;;;;;;;;;;;;22.02;31.77;94861.28;2067000;28;1049;-66
2022/04/17 02:53:24;;;;;;;;;;;;;;;22.02;31.82;94855.94;2066998;28;1192;-67
2022/04/17 02:54:26;;;;;;;;;;;;;;;22.02;31.80;94858.63;2058169;28;1977;-66
2022/04/17 02:55:27;;;;;;;;;;;;;;;22.02;31.84;94862.09;2050370;28;1623;-66
2022/04/17 02:56:29;;;;;;;;;;;;;;;22.02;31.80;94855.94;2058108;28;1325;-67
2022/04/17 02:57:31;;;;;;;;;;;;;;;22.03;31.84;94854.91;2050677;28;1192;-66
2022/04/17 02:58:38;;;;;;;;;;;;;;;22.02;31.82;94862.09;2059046;28;1206;-66
2022/04/17 02:59:40;;;;;;;;;;;;;;;22.01;31.82;94849.78;2058134;28;1122;-66
2022/04/17 03:06:03;;;;;;;;;;;;;;;22.00;31.82;94852.69;2066878;28;1068;-65
2022/04/17 03:07:04;;;;;;;;;;;;;;;21.99;31.66;94857.19;2066936;28;1033;-65
2022/04/17 03:08:07;;;;;;;;;;;;;;;22.01;31.77;94854.31;2066202;28;1008;-65
2022/04/17 03:09:09;;;;;;;;;;;;;;;22.02;31.97;94861.28;2059715;28;1084;-67
2022/04/17 03:10:10;;;;;;;;;;;;;;;22.02;31.55;94862.09;2066752;28;1394;-65
2022/04/17 03:11:12;;;;;;;;;;;;;;;22.02;31.70;94854.06;2066184;28;1169;-65
2022/04/17 03:12:14;;;;;;;;;;;;;;;22.03;31.75;94852.25;2066581;28;1660;-65
2022/04/17 03:13:16;;;;;;;;;;;;;;;22.01;31.83;94855.13;2058176;28;1320;-65
2022/04/17 03:14:17;;;;;;;;;;;;;;;22.01;31.69;94855.13;2058018;28;1899;-66
2022/04/17 03:15:19;;;;;;;;;;;;;;;22.00;31.89;94858.03;2066296;28;1045;-65
2022/04/17 03:16:20;;;;;;;;;;;;;;;22.00;31.69;94858.84;2066796;28;1022;-65
2022/04/17 03:17:22;;;;;;;;;;;;;;;21.99;31.90;94851.84;2066930;28;1063;-65
2022/04/17 03:18:23;;;;;;;;;;;;;;;22.00;31.61;94852.69;2066244;28;1180;-66
2022/04/17 03:19:25;;;;;;;;;;;;;;;21.99;31.82;94854.53;2054194;28;1102;-69
2022/04/17 03:20:27;;;;;;;;;;;;;;;21.99;31.79;94851.84;2053102;28;1113;-66
2022/04/17 03:21:29;;;;;;;;;;;;;;;22.01;31.83;94847.09;2066576;28;1094;-65
2022/04/17 03:22:31;;;;;;;;;;;;;;;22.00;31.61;94850.00;2066722;28;1130;-67
2022/04/17 03:23:33;;;;;;;;;;;;;;;22.00;31.62;94850.00;2058211;28;1069;-66
2022/04/17 03:24:35;;;;;;;;;;;;;;;22.00;31.83;94848.16;2058244;28;1117;-66
2022/04/17 03:25:36;;;;;;;;;;;;;;;22.00;31.85;94856.19;2066033;28;1129;-67
2022/04/17 03:26:41;;;;;;;;;;;;;;;21.99;31.70;94849.19;2066248;28;1252;-65
2022/04/17 03:27:46;;;;;;;;;;;;;;;22.00;31.66;94856.19;2058004;28;1125;-65
2022/04/17 03:28:47;;;;;;;;;;;;;;;22.03;31.87;94857.59;2058844;28;1041;-66
2022/04/17 03:29:49;;;;;;;;;;;;;;;22.03;31.80;94853.06;2066713;28;1056;-65
2022/04/17 03:30:51;;;;;;;;;;;;;;;22.02;31.73;94854.06;2070153;28;1211;-65
2022/04/17 03:31:52;;;;;;;;;;;;;;;22.02;31.62;94855.94;2069786;28;1999;-65
2022/04/17 03:32:54;;;;;;;;;;;;;;;22.02;31.82;94859.41;2074920;28;1005;-66
2022/04/17 03:33:55;;;;;;;;;;;;;;;22.03;31.76;94857.59;2074123;28;1906;-66
2022/04/17 03:34:57;;;;;;;;;;;;;;;22.02;31.92;94854.06;2074715;28;1347;-66
2022/04/17 03:35:59;;;;;;;;;;;;;;;22.02;31.86;94859.41;2074523;28;1535;-65
2022/04/17 03:37:00;;;;;;;;;;;;;;;22.01;31.62;94860.47;2074753;28;1110;-65
2022/04/17 03:38:02;;;;;;;;;;;;;;;22.00;31.71;94853.50;2074820;28;1240;-67
2022/04/17 03:39:04;;;;;;;;;;;;;;;22.00;31.96;94863.41;2073381;28;1110;-66
2022/04/17 03:40:05;;;;;;;;;;;;;;;22.02;31.66;94866.63;2065932;28;997;-65
2022/04/17 03:41:07;;;;;;;;;;;;;;;22.00;31.90;94869.56;2065897;28;1033;-66
2022/04/17 03:42:09;;;;;;;;;;;;;;;22.01;31.82;94863.16;2070396;28;998;-66
2022/04/17 03:43:11;;;;;;;;;;;;;;;22.01;31.97;94876.53;2061079;28;1194;-65
2022/04/17 03:44:12;;;;;;;;;;;;;;;21.99;31.86;94869.75;2066090;28;1102;-65
2022/04/17 03:45:15;;;;;;;;;;;;;;;21.97;31.73;94880.72;2074608;28;1022;-66
2022/04/17 03:46:16;;;;;;;;;;;;;;;21.99;31.77;94873.25;2073735;28;1176;-67
2022/04/17 03:47:18;;;;;;;;;;;;;;;21.99;31.75;94875.94;2074530;28;1050;-67
2022/04/17 03:48:19;;;;;;;;;;;;;;;21.98;31.60;94876.97;2073652;28;1030;-66
2022/04/17 03:49:21;;;;;;;;;;;;;;;21.99;31.70;94889.31;2074144;28;1168;-65
2022/04/17 03:50:23;;;;;;;;;;;;;;;22.00;31.70;94887.47;2074753;28;1160;-65
2022/04/17 03:51:24;;;;;;;;;;;;;;;22.00;31.73;94898.97;2066040;28;1038;-65
2022/04/17 03:52:26;;;;;;;;;;;;;;;22.01;31.87;94889.09;2065955;28;1053;-65
2022/04/17 03:53:28;;;;;;;;;;;;;;;22.02;31.82;94877.34;2071122;28;1677;-65
2022/04/17 03:54:30;;;;;;;;;;;;;;;22.01;31.80;94883.75;2069686;28;1993;-65
2022/04/17 03:55:33;;;;;;;;;;;;;;;22.01;31.89;94884.56;2074106;28;1157;-65
2022/04/17 03:56:35;;;;;;;;;;;;;;;22.00;31.82;94877.59;2065480;28;1555;-65
2022/04/17 03:57:36;;;;;;;;;;;;;;;21.99;31.78;94883.94;2066102;28;1066;-68
2022/04/17 03:58:38;;;;;;;;;;;;;;;21.98;31.76;94876.97;2074538;28;1173;-65
2022/04/17 03:59:39;;;;;;;;;;;;;;;22.01;31.77;94875.72;2065448;28;1153;-66
2022/04/17 04:00:41;;;;;;;;;;;;;;;22.01;31.65;94870.38;2066187;28;986;-66
2022/04/17 04:01:43;;;;;;;;;;;;;;;21.98;31.94;94882.34;2074481;28;1154;-67
2022/04/17 04:02:48;;;;;;;;;;;;;;;21.98;31.67;94871.63;2074007;28;1105;-67
2022/04/17 04:03:49;;;;;;;;;;;;;;;21.99;31.81;94870.56;2074514;28;1672;-67
2022/04/17 04:04:51;;;;;;;;;;;;;;;22.00;32.01;94869.56;2071045;28;1149;-67
2022/04/17 04:05:52;;;;;;;;;;;;;;;22.00;31.75;94874.09;2069478;28;1195;-65
2022/04/17 04:06:54;;;;;;;;;;;;;;;22.02;31.87;94872.00;2074669;28;1114;-68
2022/04/17 04:07:56;;;;;;;;;;;;;;;22.01;31.69;94876.53;2074457;28;1110;-68
2022/04/17 04:08:58;;;;;;;;;;;;;;;22.02;31.86;94877.34;2074759;28;1088;-65
2022/04/17 04:09:59;;;;;;;;;;;;;;;22.01;31.83;94884.56;2074511;28;1225;-65
2022/04/17 04:11:01;;;;;;;;;;;;;;;22.01;31.95;94873.03;2073953;28;1689;-66
2022/04/17 04:12:02;;;;;;;;;;;;;;;21.99;31.93;94873.25;2074729;28;1056;-65
2022/04/17 04:13:04;;;;;;;;;;;;;;;22.00;31.81;94877.59;2065396;28;1131;-66
2022/04/17 04:14:06;;;;;;;;;;;;;;;22.01;31.77;94876.53;2066058;28;1108;-66
2022/04/17 04:15:07;;;;;;;;;;;;;;;22.00;31.75;94874.91;2074443;28;1906;-66
2022/04/17 04:16:09;;;;;;;;;;;;;;;22.02;31.78;94867.44;2070355;28;1116;-69
2022/04/17 04:17:11;;;;;;;;;;;;;;;22.01;31.82;94875.72;2068124;28;1106;-66
2022/04/17 04:18:12;;;;;;;;;;;;;;;21.99;31.72;94880.47;2073943;28;1102;-66
2022/04/17 04:19:14;;;;;;;;;;;;;;;21.99;31.69;94873.25;2074647;28;1104;-65
2022/04/17 04:20:15;;;;;;;;;;;;;;;22.01;31.86;94875.72;2074598;28;1015;-65
2022/04/17 04:21:17;;;;;;;;;;;;;;;22.00;31.86;94874.91;2073711;28;1148;-66
2022/04/17 04:22:20;;;;;;;;;;;;;;;22.00;31.90;94874.91;2073601;28;1263;-67
2022/04/17 04:23:22;;;;;;;;;;;;;;;22.01;31.62;94873.03;2074441;28;1079;-65
2022/04/17 04:24:24;;;;;;;;;;;;;;;22.01;31.92;94868.50;2065346;28;1207;-66
2022/04/17 04:25:26;;;;;;;;;;;;;;;22.01;31.60;94865.81;2057524;28;1093;-66
2022/04/17 04:26:30;;;;;;;;;;;;;;;22.00;31.89;94869.56;2065609;28;1141;-66
2022/04/17 04:28:52;;;;;;;;;;;;;;;21.98;31.84;94879.66;2069588;28;1307;-66
2022/04/17 04:29:53;;;;;;;;;;;;;;;21.99;31.85;94883.94;2074253;28;1233;-66
2022/04/17 04:30:55;;;;;;;;;;;;;;;21.99;31.89;94878.59;2057734;28;1083;-65
2022/04/17 04:31:57;;;;;;;;;;;;;;;21.98;31.90;94876.97;2057852;28;1033;-67
2022/04/17 04:32:59;;;;;;;;;;;;;;;21.99;31.73;94888.50;2056992;28;1451;-66
2022/04/17 04:34:00;;;;;;;;;;;;;;;22.00;31.80;94874.09;2057475;28;1098;-65
2022/04/17 04:35:02;;;;;;;;;;;;;;;21.99;31.73;94873.25;2057773;28;1910;-66
2022/04/17 04:36:05;;;;;;;;;;;;;;;21.99;31.95;94870.56;2066074;28;1137;-66
2022/04/17 04:37:06;;;;;;;;;;;;;;;21.99;31.89;94873.25;2057496;28;1137;-65
2022/04/17 04:38:08;;;;;;;;;;;;;;;21.97;32.00;94870.00;2057683;28;1156;-65
2022/04/17 04:39:10;;;;;;;;;;;;;;;21.98;31.90;94866.28;2061631;28;1209;-66
2022/04/17 04:40:12;;;;;;;;;;;;;;;21.99;31.83;94867.09;2060834;28;1312;-65
2022/04/17 04:41:13;;;;;;;;;;;;;;;21.99;31.86;94867.09;2065985;28;1177;-66
2022/04/17 04:42:15;;;;;;;;;;;;;;;21.99;31.82;94867.91;2057350;28;1124;-64
2022/04/17 04:43:16;;;;;;;;;;;;;;;22.00;31.67;94869.56;2049566;28;1088;-66
2022/04/17 04:44:18;;;;;;;;;;;;;;;21.99;31.86;94867.91;2057633;28;1513;-65
2022/04/17 04:46:40;;;;;;;;;;;;;;;21.98;31.82;94866.28;2066246;28;1008;-65
2022/04/17 04:47:42;;;;;;;;;;;;;;;21.98;31.70;94866.28;2065572;28;1097;-65
2022/04/17 04:50:05;;;;;;;;;;;;;;;21.98;31.89;94868.94;2066122;28;1024;-65
2022/04/17 04:51:07;;;;;;;;;;;;;;;21.98;31.91;94870.81;2057361;28;1244;-68
2022/04/17 04:52:08;;;;;;;;;;;;;;;21.99;31.92;94867.91;2065725;28;1140;-65
2022/04/17 04:53:10;;;;;;;;;;;;;;;21.98;31.98;94860.94;2065865;28;1308;-65
2022/04/17 04:54:12;;;;;;;;;;;;;;;21.99;31.75;94870.56;2066157;28;1124;-65
2022/04/17 04:55:14;;;;;;;;;;;;;;;22.00;31.84;94869.56;2065616;28;1910;-65
2022/04/17 04:56:16;;;;;;;;;;;;;;;22.01;31.86;94863.16;2065829;28;1417;-65
2022/04/17 04:57:17;;;;;;;;;;;;;;;21.99;31.82;94862.56;2065925;28;1109;-65
2022/04/17 04:58:19;;;;;;;;;;;;;;;21.98;31.93;94863.59;2065885;28;970;-65
2022/04/17 04:59:21;;;;;;;;;;;;;;;21.98;31.74;94866.28;2066050;28;1008;-65
2022/04/17 05:00:23;;;;;;;;;;;;;;;21.99;31.87;94862.56;2065961;28;1125;-65
2022/04/17 05:01:24;;;;;;;;;;;;;;;21.98;31.91;94860.94;2065985;28;1570;-65
2022/04/17 05:02:26;;;;;;;;;;;;;;;21.99;31.85;94856.38;2047690;28;1110;-65
2022/04/17 05:03:28;;;;;;;;;;;;;;;21.97;31.90;94851.28;2056918;28;1132;-65
2022/04/17 05:04:29;;;;;;;;;;;;;;;21.98;31.94;94857.44;2065513;28;1095;-65
2022/04/17 05:05:31;;;;;;;;;;;;;;;21.96;31.92;94854.97;2065994;28;1488;-65
2022/04/17 05:06:33;;;;;;;;;;;;;;;21.97;31.95;94858.47;2066108;28;1093;-65
2022/04/17 05:07:34;;;;;;;;;;;;;;;21.95;31.92;94858.69;2057458;28;1081;-66
2022/04/17 05:08:36;;;;;;;;;;;;;;;21.94;31.94;94854.38;2057653;28;978;-69
2022/04/17 05:09:38;;;;;;;;;;;;;;;21.97;31.93;94858.47;2065532;28;1326;-66
2022/04/17 05:10:39;;;;;;;;;;;;;;;21.97;31.74;94863.81;2065937;28;1057;-66
2022/04/17 05:11:41;;;;;;;;;;;;;;;21.99;31.86;94867.09;2057403;28;1002;-66
2022/04/17 05:12:42;;;;;;;;;;;;;;;21.99;32.01;94862.56;2057558;28;1106;-66
2022/04/17 05:13:44;;;;;;;;;;;;;;;21.98;31.88;94855.56;2056879;28;1260;-65
2022/04/17 05:14:45;;;;;;;;;;;;;;;21.96;31.90;94863.00;2065785;28;1256;-66
2022/04/17 05:15:47;;;;;;;;;;;;;;;21.97;31.91;94866.50;2065832;28;1902;-66
2022/04/17 05:16:49;;;;;;;;;;;;;;;21.97;31.73;94866.50;2065555;28;1006;-65
2022/04/17 05:17:51;;;;;;;;;;;;;;;21.96;31.77;94863.00;2065878;28;1274;-65
2022/04/17 05:19:18;;;;;;;;;;;;;;;21.97;31.70;94864.66;2066074;28;1007;-66
2022/04/17 05:20:14;;;;;;;;;;;;;;;21.97;31.77;94863.81;2066093;28;1185;-66
2022/04/17 05:21:19;;;;;;;;;;;;;;;21.97;31.63;94864.66;2057582;28;1114;-67
2022/04/17 05:22:30;;;;;;;;;;;;;;;21.99;31.71;94870.56;2058000;28;972;-65
2022/04/17 05:23:32;;;;;;;;;;;;;;;22.00;31.90;94868.75;2065704;28;1741;-65
2022/04/17 05:24:33;;;;;;;;;;;;;;;22.01;31.78;94865.00;2052689;28;1047;-65
2022/04/17 05:25:35;;;;;;;;;;;;;;;22.02;31.89;94872.00;2052365;28;1204;-65
2022/04/17 05:26:37;;;;;;;;;;;;;;;22.00;31.93;94874.91;2065990;28;1121;-66
2022/04/17 05:27:39;;;;;;;;;;;;;;;21.99;31.75;94867.91;2065870;28;1114;-66
2022/04/17 05:28:41;;;;;;;;;;;;;;;21.98;31.73;94866.28;2065862;28;1114;-65
2022/04/17 05:29:42;;;;;;;;;;;;;;;21.97;31.78;94870.00;2065808;28;1109;-66
2022/04/17 05:30:44;;;;;;;;;;;;;;;21.98;31.92;94857.44;2073191;28;1108;-65
2022/04/17 05:31:49;;;;;;;;;;;;;;;21.97;31.91;94866.50;2064381;28;1269;-65
2022/04/17 05:32:50;;;;;;;;;;;;;;;21.98;31.74;94876.16;2057877;28;1077;-65
2022/04/17 05:33:52;;;;;;;;;;;;;;;21.99;31.88;94870.56;2065087;28;1268;-65
2022/04/17 05:34:53;;;;;;;;;;;;;;;21.98;31.76;94863.59;2064765;28;1365;-65
2022/04/17 05:35:55;;;;;;;;;;;;;;;21.97;31.74;94866.50;2060470;28;1981;-66
2022/04/17 05:36:56;;;;;;;;;;;;;;;21.96;31.74;94868.34;2060444;28;1355;-67
2022/04/17 05:37:58;;;;;;;;;;;;;;;21.98;31.93;94868.94;2073944;28;1096;-67
2022/04/17 05:39:00;;;;;;;;;;;;;;;21.98;31.86;94857.44;2073470;28;1204;-66
2022/04/17 05:40:02;;;;;;;;;;;;;;;21.97;31.86;94859.31;2073720;28;1607;-65
2022/04/17 05:41:03;;;;;;;;;;;;;;;21.97;31.88;94863.81;2073943;28;1110;-66
2022/04/17 05:42:05;;;;;;;;;;;;;;;21.96;31.70;94862.19;2073772;28;1192;-66